createdAt,value
2023-04-12T00:02:22.054Z,100.00
2023-04-12T00:04:55.571Z,100.00
2023-04-12T00:07:23.985Z,100.00
2023-04-12T00:09:51.643Z,100.00
2023-04-12T00:12:20.681Z,100.00
2023-04-12T00:14:48.597Z,100.00
2023-04-12T00:17:16.041Z,100.00
2023-04-12T00:19:44.803Z,100.00
2023-04-12T00:22:13.032Z,100.00
2023-04-12T00:24:40.717Z,100.00
2023-04-12T00:27:08.561Z,100.00
2023-04-12T00:29:36.149Z,100.00
2023-04-12T00:32:05.533Z,100.00
2023-04-12T00:34:33.087Z,100.00
2023-04-12T00:37:01.159Z,100.00
2023-04-12T00:39:29.007Z,100.00
2023-04-12T00:41:56.942Z,100.00
2023-04-12T00:44:24.787Z,100.00
2023-04-12T00:46:52.553Z,100.00
2023-04-12T00:49:20.353Z,100.00
2023-04-12T00:51:47.842Z,100.00
2023-04-12T00:54:18.021Z,100.00
2023-04-12T00:56:47.308Z,100.00
2023-04-12T00:59:15.344Z,100.00
2023-04-12T01:01:42.818Z,100.00
2023-04-12T01:04:13.958Z,100.00
2023-04-12T01:07:01.640Z,100.00
2023-04-12T01:09:36.232Z,100.00
2023-04-12T01:12:16.446Z,100.00
2023-04-12T01:14:46.977Z,100.00
2023-04-12T01:17:20.674Z,100.00
2023-04-12T01:20:23.424Z,100.00
2023-04-12T01:23:03.704Z,100.00
2023-04-12T01:25:46.704Z,100.00
2023-04-12T01:28:16.686Z,100.00
2023-04-12T01:30:44.851Z,100.00
2023-04-12T01:33:13.436Z,100.00
2023-04-12T01:35:41.294Z,100.00
2023-04-12T01:38:08.892Z,100.00
2023-04-12T01:40:36.618Z,100.00
2023-04-12T01:43:11.450Z,100.00
2023-04-12T01:45:39.157Z,100.00
2023-04-12T01:48:08.593Z,100.00
2023-04-12T01:50:45.430Z,100.00
2023-04-12T01:53:15.085Z,100.00
2023-04-12T01:55:45.840Z,100.00
2023-04-12T01:58:13.613Z,100.00
2023-04-12T02:00:42.580Z,100.00
2023-04-12T02:03:10.540Z,100.00
2023-04-12T02:05:38.243Z,100.00
2023-04-12T02:08:06.449Z,100.00
2023-04-12T02:10:36.505Z,100.00
2023-04-12T02:13:04.220Z,100.00
2023-04-12T02:15:31.791Z,100.00
2023-04-12T02:17:59.455Z,100.00
2023-04-12T02:20:27.444Z,100.00
2023-04-12T02:22:55.000Z,100.00
2023-04-12T02:25:22.621Z,100.00
2023-04-12T02:27:49.980Z,100.00
2023-04-12T02:30:17.614Z,100.00
2023-04-12T02:32:45.234Z,100.00
2023-04-12T02:35:13.446Z,100.00
2023-04-12T02:37:41.177Z,100.00
2023-04-12T02:40:11.550Z,100.00
2023-04-12T02:42:40.382Z,100.00
2023-04-12T02:45:08.075Z,100.00
2023-04-12T02:47:35.501Z,100.00
2023-04-12T02:50:03.246Z,100.00
2023-04-12T02:52:30.656Z,100.00
2023-04-12T02:54:58.265Z,100.00
2023-04-12T02:57:25.697Z,100.00
2023-04-12T02:59:54.184Z,100.00
2023-04-12T03:02:22.023Z,100.00
2023-04-12T03:04:50.958Z,100.00
2023-04-12T03:07:19.910Z,100.00
2023-04-12T03:09:48.638Z,100.00
2023-04-12T03:12:16.581Z,100.00
2023-04-12T03:14:44.252Z,100.00
2023-04-12T03:17:12.155Z,100.00
2023-04-12T03:19:39.588Z,100.00
2023-04-12T03:22:07.111Z,100.00
2023-04-12T03:24:35.061Z,100.00
2023-04-12T03:27:03.775Z,100.00
2023-04-12T03:29:34.200Z,100.00
2023-04-12T03:32:01.546Z,100.00
2023-04-12T03:34:32.196Z,100.00
2023-04-12T03:37:00.391Z,100.00
2023-04-12T03:39:27.874Z,100.00
2023-04-12T03:41:55.339Z,100.00
2023-04-12T03:44:22.697Z,100.00
2023-04-12T03:46:50.173Z,100.00
2023-04-12T03:49:17.707Z,100.00
2023-04-12T03:51:45.514Z,100.00
2023-04-12T03:54:13.836Z,100.00
2023-04-12T03:56:41.235Z,100.00
2023-04-12T03:59:08.801Z,100.00
2023-04-12T04:01:36.448Z,100.00
2023-04-12T04:04:05.344Z,100.00
2023-04-12T04:06:34.261Z,100.00
2023-04-12T04:09:01.689Z,100.00
2023-04-12T04:11:29.081Z,100.00
2023-04-12T04:13:56.724Z,100.00
2023-04-12T04:16:24.264Z,100.00
2023-04-12T04:18:51.709Z,100.00
2023-04-12T04:21:19.578Z,100.00
2023-04-12T04:23:47.876Z,100.00
2023-04-12T04:26:15.793Z,100.00
2023-04-12T04:28:45.582Z,100.00
2023-04-12T04:31:13.645Z,100.00
2023-04-12T04:33:41.675Z,100.00
2023-04-12T04:36:09.660Z,100.00
2023-04-12T04:38:37.369Z,100.00
2023-04-12T04:41:04.847Z,100.00
2023-04-12T04:43:34.171Z,100.00
2023-04-12T04:46:02.363Z,100.00
2023-04-12T04:48:30.722Z,100.00
2023-04-12T04:50:58.104Z,100.00
2023-04-12T04:53:25.451Z,100.00
2023-04-12T04:55:58.736Z,100.00
2023-04-12T04:58:26.569Z,100.00
2023-04-12T05:00:57.579Z,100.00
2023-04-12T05:03:30.278Z,100.00
2023-04-12T05:05:58.126Z,100.00
2023-04-12T05:08:26.053Z,100.00
2023-04-12T05:10:53.971Z,100.00
2023-04-12T05:13:22.304Z,100.00
2023-04-12T05:15:50.033Z,100.00
2023-04-12T05:18:18.059Z,100.00
2023-04-12T05:20:45.768Z,100.00
2023-04-12T05:23:13.123Z,100.00
2023-04-12T05:25:46.826Z,100.00
2023-04-12T05:28:15.542Z,100.00
2023-04-12T05:30:42.980Z,100.00
2023-04-12T05:33:10.432Z,100.00
2023-04-12T05:35:37.865Z,100.00
2023-04-12T05:38:05.322Z,100.00
2023-04-12T05:40:32.834Z,100.00
2023-04-12T05:43:00.360Z,100.00
2023-04-12T05:45:27.800Z,100.00
2023-04-12T05:47:56.160Z,100.00
2023-04-12T05:50:23.630Z,100.00
2023-04-12T05:52:52.260Z,100.00
2023-04-12T05:55:19.713Z,100.00
2023-04-12T05:57:47.700Z,100.00
2023-04-12T06:00:17.437Z,100.00
2023-04-12T06:02:48.374Z,100.00
2023-04-12T06:05:17.061Z,100.00
2023-04-12T06:07:46.951Z,100.00
2023-04-12T06:10:15.239Z,100.00
2023-04-12T06:12:42.884Z,100.00
2023-04-12T06:15:10.608Z,100.00
2023-04-12T06:17:38.129Z,100.00
2023-04-12T06:20:08.775Z,100.00
2023-04-12T06:22:36.629Z,100.00
2023-04-12T06:25:04.801Z,100.00
2023-04-12T06:27:32.557Z,100.00
2023-04-12T06:30:00.062Z,100.00
2023-04-12T06:32:27.596Z,100.00
2023-04-12T06:34:55.063Z,100.00
2023-04-12T06:37:22.906Z,100.00
2023-04-12T06:39:50.381Z,100.00
2023-04-12T06:42:18.477Z,100.00
2023-04-12T06:44:45.929Z,100.00
2023-04-12T06:47:13.427Z,100.00
2023-04-12T06:49:40.905Z,100.00
2023-04-12T06:52:08.420Z,100.00
2023-04-12T06:54:38.766Z,100.00
2023-04-12T06:57:12.224Z,100.00
2023-04-12T06:59:39.668Z,100.00
2023-04-12T07:02:07.948Z,100.00
2023-04-12T07:04:35.450Z,100.00
2023-04-12T07:07:02.903Z,100.00
2023-04-12T07:09:33.477Z,100.00
2023-04-12T07:12:04.054Z,100.00
2023-04-12T07:14:31.578Z,100.00
2023-04-12T07:16:59.014Z,100.00
2023-04-12T07:19:26.559Z,100.00
2023-04-12T07:21:53.981Z,100.00
2023-04-12T07:24:21.395Z,100.00
2023-04-12T07:26:48.784Z,100.00
2023-04-12T07:29:17.084Z,100.00
2023-04-12T07:31:46.042Z,100.00
2023-04-12T07:34:14.200Z,100.00
2023-04-12T07:36:44.326Z,100.00
2023-04-12T07:39:13.639Z,100.00
2023-04-12T07:41:42.294Z,100.00
2023-04-12T07:44:09.841Z,100.00
2023-04-12T07:46:37.251Z,100.00
2023-04-12T07:49:04.719Z,100.00
2023-04-12T07:51:32.870Z,100.00
2023-04-12T07:54:00.314Z,100.00
2023-04-12T07:56:27.845Z,100.00
2023-04-12T07:58:55.353Z,100.00
2023-04-12T08:01:22.796Z,100.00
2023-04-12T08:03:50.484Z,100.00
2023-04-12T08:06:18.412Z,100.00
2023-04-12T08:08:47.300Z,100.00
2023-04-12T08:11:15.025Z,100.00
2023-04-12T08:13:42.625Z,100.00
2023-04-12T08:16:10.138Z,100.00
2023-04-12T08:18:37.693Z,100.00
2023-04-12T08:21:05.168Z,100.00
2023-04-12T08:23:32.595Z,100.00
2023-04-12T08:26:03.631Z,100.00
2023-04-12T08:28:31.893Z,100.00
2023-04-12T08:30:59.716Z,100.00
2023-04-12T08:33:27.724Z,100.00
2023-04-12T08:35:55.674Z,100.00
2023-04-12T08:38:30.540Z,100.00
2023-04-12T08:41:09.270Z,100.00
2023-04-12T08:43:37.982Z,100.00
2023-04-12T08:46:07.534Z,100.00
2023-04-12T08:48:35.348Z,100.00
2023-04-12T08:51:02.903Z,100.00
2023-04-12T08:53:31.690Z,100.00
2023-04-12T08:55:59.185Z,100.00
2023-04-12T08:58:27.022Z,100.00
2023-04-12T09:00:54.517Z,100.00
2023-04-12T09:03:22.042Z,100.00
2023-04-12T09:05:49.669Z,100.00
2023-04-12T09:08:17.494Z,100.00
2023-04-12T09:10:45.108Z,100.00
2023-04-12T09:13:12.612Z,100.00
2023-04-12T09:15:49.142Z,100.00
2023-04-12T09:18:17.572Z,100.00
2023-04-12T09:20:45.054Z,100.00
2023-04-12T09:23:24.734Z,100.00
2023-04-12T09:25:53.556Z,100.00
2023-04-12T09:28:28.260Z,100.00
2023-04-12T09:30:56.330Z,100.00
2023-04-12T09:33:26.110Z,99.09
2023-04-12T09:36:00.998Z,99.34
2023-04-12T09:38:28.605Z,99.41
2023-04-12T09:40:56.030Z,98.62
2023-04-12T09:43:39.514Z,99.49
2023-04-12T09:46:14.671Z,100.00
2023-04-12T09:48:43.663Z,98.13
2023-04-12T09:51:11.992Z,93.28
2023-04-12T09:53:43.214Z,100.00
2023-04-12T09:56:11.439Z,96.28
2023-04-12T09:58:40.162Z,93.16
2023-04-12T10:01:11.150Z,93.21
2023-04-12T10:03:38.919Z,92.15
2023-04-12T10:06:06.858Z,94.89
2023-04-12T10:08:34.257Z,93.75
2023-04-12T10:11:02.577Z,94.37
2023-04-12T10:13:30.060Z,93.95
2023-04-12T10:15:57.581Z,92.89
2023-04-12T10:18:25.103Z,97.28
2023-04-12T10:20:52.761Z,99.41
2023-04-12T10:23:20.250Z,97.11
2023-04-12T10:25:49.311Z,93.99
2023-04-12T10:28:18.682Z,98.07
2023-04-12T10:30:48.056Z,94.22
2023-04-12T10:33:16.921Z,91.36
2023-04-12T10:35:58.001Z,91.91
2023-04-12T10:38:27.242Z,94.24
2023-04-12T10:41:13.248Z,89.21
2023-04-12T10:43:41.895Z,98.23
2023-04-12T10:46:09.380Z,94.58
2023-04-12T10:48:52.887Z,97.61
2023-04-12T10:51:25.371Z,96.77
2023-04-12T10:53:53.694Z,99.08
2023-04-12T10:56:33.157Z,97.31
2023-04-12T10:59:00.913Z,96.27
2023-04-12T11:01:29.198Z,94.65
2023-04-12T11:04:14.074Z,99.80
2023-04-12T11:06:47.838Z,100.00
2023-04-12T11:09:21.945Z,100.00
2023-04-12T11:11:49.922Z,97.85
2023-04-12T11:14:17.722Z,89.74
2023-04-12T11:17:03.808Z,86.59
2023-04-12T11:19:32.172Z,86.15
2023-04-12T11:22:02.314Z,87.75
2023-04-12T11:24:29.944Z,86.33
2023-04-12T11:27:01.516Z,75.22
2023-04-12T11:29:28.969Z,64.01
2023-04-12T11:31:56.617Z,61.79
2023-04-12T11:34:24.110Z,74.30
2023-04-12T11:36:55.360Z,71.60
2023-04-12T11:39:22.886Z,59.70
2023-04-12T11:41:50.575Z,62.60
2023-04-12T11:44:19.029Z,56.10
2023-04-12T11:46:46.869Z,53.70
2023-04-12T11:49:17.660Z,60.83
2023-04-12T11:51:48.234Z,56.16
2023-04-12T11:54:16.992Z,53.30
2023-04-12T11:56:44.538Z,45.76
2023-04-12T11:59:12.760Z,48.41
2023-04-12T12:01:40.315Z,46.19
2023-04-12T12:04:07.885Z,48.94
2023-04-12T12:06:35.716Z,47.12
2023-04-12T12:09:03.352Z,44.70
2023-04-12T12:11:32.517Z,41.97
2023-04-12T12:14:00.499Z,43.44
2023-04-12T12:16:29.114Z,44.81
2023-04-12T12:18:57.452Z,41.00
2023-04-12T12:21:24.950Z,40.06
2023-04-12T12:23:52.707Z,40.41
2023-04-12T12:26:22.386Z,39.34
2023-04-12T12:28:51.038Z,42.54
2023-04-12T12:31:22.341Z,42.79
2023-04-12T12:33:52.497Z,45.08
2023-04-12T12:36:20.965Z,44.03
2023-04-12T12:38:51.205Z,41.80
2023-04-12T12:41:18.766Z,41.98
2023-04-12T12:43:47.037Z,42.16
2023-04-12T12:46:14.979Z,42.59
2023-04-12T12:48:43.060Z,43.72
2023-04-12T12:51:11.868Z,42.79
2023-04-12T12:53:40.738Z,42.78
2023-04-12T12:56:10.088Z,44.44
2023-04-12T12:58:39.687Z,43.19
2023-04-12T13:01:08.961Z,44.85
2023-04-12T13:03:36.865Z,45.41
2023-04-12T13:06:04.430Z,49.13
2023-04-12T13:08:35.251Z,57.58
2023-04-12T13:11:02.863Z,56.51
2023-04-12T13:13:30.409Z,60.56
2023-04-12T13:15:57.873Z,58.92
2023-04-12T13:18:25.362Z,57.91
2023-04-12T13:20:52.825Z,53.31
2023-04-12T13:23:20.500Z,51.77
2023-04-12T13:25:47.941Z,49.53
2023-04-12T13:28:16.851Z,47.92
2023-04-12T13:30:44.532Z,51.33
2023-04-12T13:33:14.296Z,50.13
2023-04-12T13:35:45.255Z,49.26
2023-04-12T13:38:12.759Z,48.88
2023-04-12T13:40:40.174Z,50.37
2023-04-12T13:43:08.708Z,50.16
2023-04-12T13:45:36.759Z,47.22
2023-04-12T13:48:04.341Z,49.47
2023-04-12T13:50:31.836Z,51.34
2023-04-12T13:52:59.258Z,51.43
2023-04-12T13:55:26.674Z,53.93
2023-04-12T13:57:54.098Z,54.63
2023-04-12T14:00:21.769Z,56.77
2023-04-12T14:02:49.324Z,62.00
2023-04-12T14:05:16.784Z,67.11
2023-04-12T14:07:44.246Z,69.91
2023-04-12T14:10:11.764Z,71.06
2023-04-12T14:12:39.161Z,77.21
2023-04-12T14:15:07.259Z,80.25
2023-04-12T14:17:34.730Z,85.39
2023-04-12T14:20:02.388Z,87.27
2023-04-12T14:22:30.198Z,86.77
2023-04-12T14:24:57.621Z,86.28
2023-04-12T14:27:24.957Z,86.61
2023-04-12T14:29:52.696Z,86.66
2023-04-12T14:32:20.136Z,86.56
2023-04-12T14:34:48.385Z,83.82
2023-04-12T14:37:16.242Z,87.48
2023-04-12T14:39:44.419Z,89.92
2023-04-12T14:42:11.831Z,89.57
2023-04-12T14:44:39.270Z,88.51
2023-04-12T14:47:06.729Z,87.57
2023-04-12T14:49:34.158Z,84.50
2023-04-12T14:52:01.992Z,85.97
2023-04-12T14:54:29.429Z,82.41
2023-04-12T14:56:56.899Z,73.84
2023-04-12T14:59:24.900Z,74.43
2023-04-12T15:01:53.106Z,71.41
2023-04-12T15:04:20.725Z,73.12
2023-04-12T15:06:48.293Z,73.35
2023-04-12T15:09:17.693Z,75.40
2023-04-12T15:11:46.707Z,72.83
2023-04-12T15:14:18.018Z,72.76
2023-04-12T15:16:46.346Z,74.56
2023-04-12T15:19:19.845Z,76.39
2023-04-12T15:21:54.088Z,77.77
2023-04-12T15:24:24.722Z,78.80
2023-04-12T15:26:53.231Z,81.81
2023-04-12T15:29:21.298Z,81.56
2023-04-12T15:31:49.000Z,82.85
2023-04-12T15:34:16.595Z,78.82
2023-04-12T15:36:44.322Z,75.40
2023-04-12T15:39:14.680Z,78.94
2023-04-12T15:41:42.932Z,77.11
2023-04-12T15:44:13.062Z,76.58
2023-04-12T15:46:41.462Z,81.00
2023-04-12T15:49:09.108Z,78.14
2023-04-12T15:51:36.724Z,81.67
2023-04-12T15:54:06.155Z,78.22
2023-04-12T15:56:34.522Z,81.76
2023-04-12T15:59:02.085Z,78.64
2023-04-12T16:01:29.566Z,74.99
2023-04-12T16:03:57.356Z,76.10
2023-04-12T16:06:25.432Z,70.00
2023-04-12T16:08:54.623Z,70.01
2023-04-12T16:11:23.204Z,67.76
2023-04-12T16:13:51.420Z,70.69
2023-04-12T16:16:19.293Z,71.38
2023-04-12T16:18:46.777Z,74.56
2023-04-12T16:21:16.603Z,74.53
2023-04-12T16:23:44.925Z,75.71
2023-04-12T16:26:13.124Z,77.09
2023-04-12T16:28:42.859Z,75.54
2023-04-12T16:31:11.040Z,77.47
2023-04-12T16:33:38.555Z,78.10
2023-04-12T16:36:06.081Z,81.68
2023-04-12T16:38:33.473Z,84.59
2023-04-12T16:41:01.122Z,85.85
2023-04-12T16:43:28.591Z,87.15
2023-04-12T16:45:56.786Z,89.43
2023-04-12T16:48:24.222Z,88.60
2023-04-12T16:50:51.597Z,99.20
2023-04-12T16:53:19.053Z,100.00
2023-04-12T16:55:47.623Z,100.00
2023-04-12T16:58:15.291Z,100.00
2023-04-12T17:00:43.663Z,100.00
2023-04-12T17:03:12.768Z,100.00
2023-04-12T17:05:41.087Z,100.00
2023-04-12T17:08:09.618Z,100.00
2023-04-12T17:10:38.321Z,100.00
2023-04-12T17:13:05.922Z,100.00
2023-04-12T17:15:33.706Z,100.00
2023-04-12T17:18:05.256Z,100.00
2023-04-12T17:20:32.891Z,100.00
2023-04-12T17:23:01.424Z,100.00
2023-04-12T17:25:31.231Z,100.00
2023-04-12T17:28:01.673Z,100.00
2023-04-12T17:30:29.259Z,100.00
2023-04-12T17:32:58.151Z,100.00
2023-04-12T17:35:25.639Z,100.00
2023-04-12T17:37:52.990Z,100.00
2023-04-12T17:40:20.379Z,100.00
2023-04-12T17:42:48.094Z,100.00
2023-04-12T17:45:16.008Z,100.00
2023-04-12T17:47:43.750Z,100.00
2023-04-12T17:50:12.058Z,100.00
2023-04-12T17:52:39.807Z,100.00
2023-04-12T17:55:09.928Z,100.00
2023-04-12T17:57:37.445Z,100.00
2023-04-12T18:00:07.540Z,100.00
2023-04-12T18:02:35.167Z,96.91
2023-04-12T18:05:02.958Z,95.78
2023-04-12T18:07:30.518Z,97.71
2023-04-12T18:09:57.878Z,96.16
2023-04-12T18:12:25.308Z,96.45
2023-04-12T18:14:52.803Z,95.78
2023-04-12T18:17:20.222Z,95.16
2023-04-12T18:19:48.875Z,94.81
2023-04-12T18:22:16.300Z,93.97
2023-04-12T18:24:43.865Z,97.08
2023-04-12T18:27:11.291Z,95.00
2023-04-12T18:29:38.715Z,95.71
2023-04-12T18:32:06.169Z,96.79
2023-04-12T18:34:33.841Z,98.15
2023-04-12T18:37:03.998Z,100.00
2023-04-12T18:39:31.420Z,100.00
2023-04-12T18:41:58.836Z,98.31
2023-04-12T18:44:26.216Z,100.00
2023-04-12T18:46:53.701Z,100.00
2023-04-12T18:49:22.011Z,99.80
2023-04-12T18:51:49.530Z,100.00
2023-04-12T18:54:17.510Z,98.56
2023-04-12T18:56:44.876Z,98.54
2023-04-12T18:59:17.325Z,98.31
2023-04-12T19:01:45.399Z,99.07
2023-04-12T19:04:16.370Z,100.00
2023-04-12T19:06:44.475Z,100.00
2023-04-12T19:09:12.032Z,100.00
2023-04-12T19:11:39.634Z,100.00
2023-04-12T19:14:07.597Z,100.00
2023-04-12T19:16:36.168Z,100.00
2023-04-12T19:19:03.670Z,100.00
2023-04-12T19:21:32.075Z,100.00
2023-04-12T19:24:00.189Z,100.00
2023-04-12T19:26:28.821Z,100.00
2023-04-12T19:28:58.742Z,100.00
2023-04-12T19:31:26.549Z,100.00
2023-04-12T19:33:55.554Z,100.00
2023-04-12T19:36:24.328Z,100.00
2023-04-12T19:38:51.700Z,100.00
2023-04-12T19:41:20.384Z,100.00
2023-04-12T19:43:48.516Z,100.00
2023-04-12T19:46:16.407Z,100.00
2023-04-12T19:48:45.414Z,100.00
2023-04-12T19:51:13.881Z,100.00
2023-04-12T19:53:41.950Z,100.00
2023-04-12T19:56:09.735Z,100.00
2023-04-12T19:58:37.171Z,100.00
2023-04-12T20:01:05.479Z,100.00
2023-04-12T20:03:33.033Z,100.00
2023-04-12T20:06:04.058Z,100.00
2023-04-12T20:08:32.054Z,100.00
2023-04-12T20:10:59.574Z,100.00
2023-04-12T20:13:28.574Z,100.00
2023-04-12T20:15:56.251Z,100.00
2023-04-12T20:18:23.808Z,100.00
2023-04-12T20:20:53.237Z,100.00
2023-04-12T20:23:20.670Z,100.00
2023-04-12T20:25:49.696Z,100.00
2023-04-12T20:28:17.147Z,100.00
2023-04-12T20:30:45.313Z,100.00
2023-04-12T20:33:13.000Z,100.00
2023-04-12T20:35:40.973Z,100.00
2023-04-12T20:38:08.424Z,100.00
2023-04-12T20:40:35.935Z,100.00
2023-04-12T20:43:03.474Z,100.00
2023-04-12T20:45:31.094Z,100.00
2023-04-12T20:47:59.297Z,100.00
2023-04-12T20:50:27.058Z,100.00
2023-04-12T20:52:56.207Z,100.00
2023-04-12T20:55:33.942Z,100.00
2023-04-12T20:58:03.151Z,100.00
2023-04-12T21:00:31.193Z,100.00
2023-04-12T21:03:02.978Z,100.00
2023-04-12T21:05:33.632Z,100.00
2023-04-12T21:08:02.056Z,100.00
2023-04-12T21:10:29.570Z,100.00
2023-04-12T21:12:58.281Z,100.00
2023-04-12T21:15:26.030Z,100.00
2023-04-12T21:17:54.126Z,100.00
2023-04-12T21:20:22.323Z,100.00
2023-04-12T21:22:51.689Z,100.00
2023-04-12T21:25:19.787Z,100.00
2023-04-12T21:27:47.816Z,100.00
2023-04-12T21:30:15.703Z,100.00
2023-04-12T21:32:43.968Z,100.00
2023-04-12T21:35:11.984Z,100.00
2023-04-12T21:37:39.947Z,100.00
2023-04-12T21:40:12.617Z,100.00
2023-04-12T21:42:40.950Z,100.00
2023-04-12T21:45:09.566Z,100.00
2023-04-12T21:47:37.303Z,100.00
2023-04-12T21:50:04.864Z,100.00
2023-04-12T21:52:32.238Z,100.00
2023-04-12T21:55:00.016Z,100.00
2023-04-12T21:57:31.157Z,100.00
2023-04-12T21:59:58.863Z,100.00
2023-04-12T22:02:27.415Z,100.00
2023-04-12T22:04:55.363Z,100.00
2023-04-12T22:07:22.771Z,100.00
2023-04-12T22:09:51.113Z,100.00
2023-04-12T22:12:18.518Z,100.00
2023-04-12T22:14:47.474Z,100.00
2023-04-12T22:17:16.571Z,100.00
2023-04-12T22:19:44.812Z,100.00
2023-04-12T22:22:14.221Z,100.00
2023-04-12T22:24:41.652Z,100.00
2023-04-12T22:27:09.226Z,100.00
2023-04-12T22:29:37.703Z,100.00
2023-04-12T22:32:05.416Z,100.00
2023-04-12T22:34:33.798Z,100.00
2023-04-12T22:37:03.352Z,100.00
2023-04-12T22:39:31.629Z,100.00
2023-04-12T22:41:59.583Z,100.00
2023-04-12T22:44:29.029Z,100.00
2023-04-12T22:46:56.812Z,100.00
2023-04-12T22:49:27.970Z,100.00
2023-04-12T22:51:55.818Z,100.00
2023-04-12T22:54:23.863Z,100.00
2023-04-12T22:56:51.617Z,100.00
2023-04-12T22:59:20.003Z,100.00
2023-04-12T23:01:48.421Z,100.00
2023-04-12T23:04:16.958Z,100.00
2023-04-12T23:06:44.812Z,100.00
2023-04-12T23:09:13.246Z,100.00
2023-04-12T23:11:41.695Z,100.00
2023-04-12T23:14:09.730Z,100.00
2023-04-12T23:16:42.227Z,100.00
2023-04-12T23:19:09.644Z,100.00
2023-04-12T23:21:37.195Z,100.00
2023-04-12T23:24:05.285Z,100.00
2023-04-12T23:26:34.342Z,100.00
2023-04-12T23:29:03.512Z,100.00
2023-04-12T23:31:32.072Z,100.00
2023-04-12T23:34:02.519Z,100.00
2023-04-12T23:36:30.700Z,100.00
2023-04-12T23:39:00.512Z,100.00
2023-04-12T23:41:31.714Z,100.00
2023-04-12T23:43:59.988Z,100.00
2023-04-12T23:46:27.881Z,100.00
2023-04-12T23:48:55.347Z,100.00
2023-04-12T23:51:23.025Z,100.00
2023-04-12T23:53:50.529Z,100.00
2023-04-12T23:56:17.988Z,100.00
2023-04-12T23:58:45.574Z,100.00
